Time;durP1;ratioP1;P1;durP2;ratioP2;P2;SDS_P1;SDS_P2;PMS_P1;PMS_P2;Temp;Humidity;BMP_temperature;BMP_pressure;BME280_temperature;BME280_humidity;BME280_pressure;Samples;Min_cycle;Max_cycle;Signal;HPM_P1;HPM_P2
2023/02/01 00:02:01;;;;;;;;;;;;;;;15.31;44.31;100693.59;4960431;28;1114;-53
2023/02/01 00:04:27;;;;;;;;;;;;;;;16.86;40.96;100697.44;4960100;28;1097;-47
2023/02/01 00:06:52;;;;;;;;;;;;;;;15.67;43.50;100693.75;4964865;28;1054;-51
2023/02/01 00:09:17;;;;;;;;;;;;;;;15.28;44.18;100696.88;4960146;28;1038;-53
2023/02/01 00:11:43;;;;;;;;;;;;;;;16.19;42.61;100688.41;4960011;28;1070;-51
2023/02/01 00:14:09;;;;;;;;;;;;;;;15.42;44.22;100696.38;4960101;28;1262;-57
2023/02/01 00:16:34;;;;;;;;;;;;;;;16.47;41.99;100702.69;4959711;28;1986;-54
2023/02/01 00:19:01;;;;;;;;;;;;;;;15.86;42.99;100707.00;4965999;28;1214;-56
2023/02/01 00:21:26;;;;;;;;;;;;;;;15.29;44.12;100706.75;4965446;28;1089;-54
2023/02/01 00:23:52;;;;;;;;;;;;;;;15.91;43.21;100704.25;4959660;28;1054;-53
2023/02/01 00:26:34;;;;;;;;;;;;;;;15.53;44.02;100709.06;4959594;28;1077;-59
2023/02/01 00:28:59;;;;;;;;;;;;;;;15.09;44.64;100706.66;4969223;28;1070;-56
2023/02/01 00:31:25;;;;;;;;;;;;;;;14.98;44.20;100703.81;4968963;28;1065;-53
2023/02/01 00:33:51;;;;;;;;;;;;;;;16.29;42.09;100699.38;4959575;28;1160;-53
2023/02/01 00:36:16;;;;;;;;;;;;;;;15.31;44.08;100706.50;4959586;28;1030;-54
2023/02/01 00:38:42;;;;;;;;;;;;;;;15.32;44.54;100708.13;4959852;28;1975;-56
2023/02/01 00:41:09;;;;;;;;;;;;;;;15.99;43.06;100703.75;4959493;28;1133;-54
2023/02/01 00:43:34;;;;;;;;;;;;;;;15.27;44.34;100703.44;4949640;28;943;-53
2023/02/01 00:46:00;;;;;;;;;;;;;;;16.64;41.73;100700.47;4963060;28;1093;-50
2023/02/01 00:48:26;;;;;;;;;;;;;;;15.74;43.49;100710.75;4959440;28;1165;-51
2023/02/01 00:50:51;;;;;;;;;;;;;;;17.24;40.43;100702.59;4941739;28;1221;-54
2023/02/01 00:53:16;;;;;;;;;;;;;;;17.37;39.79;100712.16;4959213;28;1109;-54
2023/02/01 00:55:46;;;;;;;;;;;;;;;16.12;42.61;100710.59;4966761;28;1078;-53
2023/02/01 00:58:11;;;;;;;;;;;;;;;16.02;43.16;100716.91;4958949;28;1903;-53
2023/02/01 01:00:37;;;;;;;;;;;;;;;16.14;42.47;100716.63;4959142;28;1010;-50
2023/02/01 01:03:17;;;;;;;;;;;;;;;15.92;43.40;100716.84;4941869;29;1125;-54
2023/02/01 01:05:48;;;;;;;;;;;;;;;17.44;39.93;100716.25;4941510;29;1485;-53
2023/02/01 01:08:14;;;;;;;;;;;;;;;15.94;42.85;100713.88;4939873;29;1532;-52
2023/02/01 01:10:40;;;;;;;;;;;;;;;15.58;43.60;100717.28;4957869;28;1131;-53
2023/02/01 01:13:05;;;;;;;;;;;;;;;15.42;43.63;100724.63;4973611;28;1141;-50
2023/02/01 01:15:31;;;;;;;;;;;;;;;17.13;40.62;100712.78;4958579;28;1208;-53
2023/02/01 01:17:57;;;;;;;;;;;;;;;15.77;43.34;100711.31;4940876;29;1970;-54
2023/02/01 01:20:23;;;;;;;;;;;;;;;16.34;42.46;100713.09;4949608;29;1094;-53
2023/02/01 01:22:48;;;;;;;;;;;;;;;16.72;41.11;100715.59;4958918;28;1157;-54
2023/02/01 01:25:14;;;;;;;;;;;;;;;15.77;43.49;100708.56;4958305;28;1046;-51
2023/02/01 01:27:39;;;;;;;;;;;;;;;15.50;43.41;100720.53;4958381;28;1065;-55
2023/02/01 01:30:05;;;;;;;;;;;;;;;15.34;43.43;100712.25;4952542;28;1318;-54
2023/02/01 01:32:30;;;;;;;;;;;;;;;15.15;43.55;100703.69;4943505;29;935;-55
2023/02/01 01:34:56;;;;;;;;;;;;;;;16.32;42.29;100709.81;4941050;29;1256;-54
2023/02/01 01:37:21;;;;;;;;;;;;;;;15.39;43.78;100706.78;4941268;29;1915;-52
2023/02/01 01:39:47;;;;;;;;;;;;;;;16.29;42.61;100699.38;4940902;29;913;-51
2023/02/01 01:42:13;;;;;;;;;;;;;;;15.98;43.04;100704.81;4941159;29;1597;-54
2023/02/01 01:44:58;;;;;;;;;;;;;;;15.50;43.84;100696.72;4942208;29;1213;-53
2023/02/01 01:47:24;;;;;;;;;;;;;;;15.16;44.18;100699.00;4941117;28;1132;-52
2023/02/01 01:49:50;;;;;;;;;;;;;;;16.01;42.79;100698.78;4957888;28;1152;-50
2023/02/01 01:52:15;;;;;;;;;;;;;;;15.26;44.35;100699.06;4941114;28;1132;-51
2023/02/01 01:54:42;;;;;;;;;;;;;;;16.20;42.56;100721.06;4941269;29;1100;-48
2023/02/01 01:57:12;;;;;;;;;;;;;;;15.53;43.63;100715.34;4944585;28;1906;-50
2023/02/01 01:59:38;;;;;;;;;;;;;;;17.10;40.57;100705.09;4941177;29;1223;-50
2023/02/01 02:02:03;;;;;;;;;;;;;;;17.07;40.42;100714.72;4958395;28;1237;-51
2023/02/01 02:04:29;;;;;;;;;;;;;;;15.94;42.74;100719.34;4958640;28;1185;-54
2023/02/01 02:06:56;;;;;;;;;;;;;;;15.47;43.51;100716.41;4925042;28;1082;-56
2023/02/01 02:09:21;;;;;;;;;;;;;;;16.04;42.96;100717.44;4951218;29;1012;-53
2023/02/01 02:11:48;;;;;;;;;;;;;;;15.69;43.58;100716.22;4958198;28;1101;-53
2023/02/01 02:14:13;;;;;;;;;;;;;;;15.49;43.90;100730.69;4958203;28;1165;-50
2023/02/01 02:16:41;;;;;;;;;;;;;;;16.77;41.14;100713.66;4957859;28;1907;-52
2023/02/01 02:19:21;;;;;;;;;;;;;;;15.56;43.45;100724.97;4940714;29;1287;-54
2023/02/01 02:21:56;;;;;;;;;;;;;;;15.26;43.75;100720.16;4955461;28;1106;-51
2023/02/01 02:24:21;;;;;;;;;;;;;;;15.10;43.78;100727.47;4958159;28;1073;-54
2023/02/01 02:26:47;;;;;;;;;;;;;;;16.23;41.99;100723.25;4957998;28;1074;-57
2023/02/01 02:29:31;;;;;;;;;;;;;;;15.43;43.70;100709.00;4942128;29;1074;-56
2023/02/01 02:32:15;;;;;;;;;;;;;;;15.02;44.41;100713.16;4955215;28;1557;-54
2023/02/01 02:34:49;;;;;;;;;;;;;;;16.40;42.16;100711.19;4961193;28;1271;-54
2023/02/01 02:37:18;;;;;;;;;;;;;;;15.31;43.88;100711.97;4928595;29;1916;-57
2023/02/01 02:39:49;;;;;;;;;;;;;;;16.91;40.87;100713.09;4961714;28;1186;-53
2023/02/01 02:48:15;;;;;;;;;;;;;;;16.42;41.82;100717.22;4961476;28;1125;-52
2023/02/01 03:04:28;;;;;;;;;;;;;;;15.86;43.09;100713.28;4946482;29;1035;-50
2023/02/01 03:06:54;;;;;;;;;;;;;;;15.22;44.02;100712.47;4961231;28;1164;-52
2023/02/01 03:09:26;;;;;;;;;;;;;;;16.07;42.58;100714.19;4951085;29;1288;-58
2023/02/01 03:14:36;;;;;;;;;;;;;;;16.70;41.24;100710.34;4976138;28;1209;-52
2023/02/01 03:17:04;;;;;;;;;;;;;;;16.94;40.38;100718.03;4959370;28;1892;-52
2023/02/01 03:19:32;;;;;;;;;;;;;;;15.78;42.91;100722.03;4943653;29;1244;-54
2023/02/01 03:21:59;;;;;;;;;;;;;;;16.07;42.77;100722.41;4928726;29;1114;-52
2023/02/01 03:24:32;;;;;;;;;;;;;;;16.06;42.46;100726.25;4943435;29;1643;-54
2023/02/01 03:27:05;;;;;;;;;;;;;;;15.43;43.61;100718.06;4928687;29;1118;-54
2023/02/01 03:29:33;;;;;;;;;;;;;;;15.25;43.87;100718.50;4943311;29;1388;-54
2023/02/01 03:31:59;;;;;;;;;;;;;;;16.10;42.29;100723.75;4977997;28;1603;-54
2023/02/01 03:34:25;;;;;;;;;;;;;;;15.42;43.60;100734.75;4966748;28;1163;-55
2023/02/01 03:36:52;;;;;;;;;;;;;;;17.33;39.79;100717.38;4943406;29;1993;-50
2023/02/01 03:39:31;;;;;;;;;;;;;;;16.33;41.67;100727.91;4958870;28;1546;-54
2023/02/01 03:41:57;;;;;;;;;;;;;;;15.90;43.09;100730.03;4942796;29;1142;-53
2023/02/01 03:44:24;;;;;;;;;;;;;;;17.08;40.17;100719.13;4951791;28;1085;-53
2023/02/01 03:46:54;;;;;;;;;;;;;;;15.88;42.82;100726.75;4943806;29;1090;-53
2023/02/01 03:49:25;;;;;;;;;;;;;;;15.56;43.36;100738.66;4960404;28;1011;-50
2023/02/01 03:51:50;;;;;;;;;;;;;;;15.70;43.41;100739.81;4960464;28;1082;-50
2023/02/01 03:54:16;;;;;;;;;;;;;;;15.85;43.08;100733.59;4960041;28;1038;-53
2023/02/01 03:56:43;;;;;;;;;;;;;;;15.48;43.86;100756.44;4949743;28;1898;-55
2023/02/01 03:59:10;;;;;;;;;;;;;;;16.68;41.70;100767.47;4960737;28;1513;-55
2023/02/01 04:01:35;;;;;;;;;;;;;;;15.77;43.16;100760.66;4947366;29;2998;-53
2023/02/01 04:04:01;;;;;;;;;;;;;;;15.40;43.66;100757.78;4942343;29;1871;-57
2023/02/01 04:06:26;;;;;;;;;;;;;;;16.42;41.69;100761.13;4942465;29;2164;-58
2023/02/01 04:08:56;;;;;;;;;;;;;;;15.54;43.59;100760.00;4962358;28;1834;-56
2023/02/01 04:11:22;;;;;;;;;;;;;;;17.41;39.75;100755.28;4959229;28;2048;-55
2023/02/01 04:13:47;;;;;;;;;;;;;;;16.40;41.93;100758.66;4959050;28;2087;-57
2023/02/01 04:16:13;;;;;;;;;;;;;;;15.61;43.49;100776.22;4959401;28;2063;-57
2023/02/01 04:18:38;;;;;;;;;;;;;;;16.66;41.36;100777.06;4958948;28;1986;-62
2023/02/01 04:21:04;;;;;;;;;;;;;;;15.60;43.46;100774.56;4967467;28;986;-52
2023/02/01 04:23:31;;;;;;;;;;;;;;;16.00;42.93;100768.44;4961331;28;1084;-54
2023/02/01 04:26:00;;;;;;;;;;;;;;;16.16;42.21;100776.72;4959390;28;1098;-53
2023/02/01 04:28:26;;;;;;;;;;;;;;;15.46;43.93;100774.22;4958927;28;1125;-55
2023/02/01 04:30:51;;;;;;;;;;;;;;;15.91;43.05;100781.06;4959174;28;1101;-54
2023/02/01 04:33:17;;;;;;;;;;;;;;;15.87;43.07;100780.75;4963510;28;986;-53
2023/02/01 04:35:42;;;;;;;;;;;;;;;15.33;44.20;100781.00;4959234;28;1109;-52
2023/02/01 04:38:07;;;;;;;;;;;;;;;16.02;42.88;100792.84;4958803;28;1919;-57
2023/02/01 04:40:33;;;;;;;;;;;;;;;15.70;42.97;100769.97;4958784;28;1351;-48
2023/02/01 04:43:00;;;;;;;;;;;;;;;15.36;44.05;100795.00;4958590;28;1215;-50
2023/02/01 04:45:25;;;;;;;;;;;;;;;15.15;44.10;100787.75;4961731;28;2395;-53
2023/02/01 04:47:51;;;;;;;;;;;;;;;15.85;43.11;100793.91;4958588;28;1001;-52
2023/02/01 04:50:16;;;;;;;;;;;;;;;15.29;44.23;100799.06;4958734;28;1136;-58
2023/02/01 04:52:42;;;;;;;;;;;;;;;16.11;42.98;100793.19;4959763;28;1145;-55
2023/02/01 04:55:07;;;;;;;;;;;;;;;15.76;43.48;100791.94;4968929;28;955;-55
2023/02/01 04:57:33;;;;;;;;;;;;;;;15.44;44.29;100799.16;4973934;28;1918;-53
2023/02/01 04:59:58;;;;;;;;;;;;;;;17.06;40.56;100803.72;4968960;28;1138;-52
2023/02/01 05:02:24;;;;;;;;;;;;;;;15.57;43.51;100808.81;4979243;28;1170;-53
2023/02/01 05:04:50;;;;;;;;;;;;;;;15.30;44.09;100809.75;4978227;28;1006;-56
2023/02/01 05:07:15;;;;;;;;;;;;;;;15.15;44.00;100812.38;4974146;28;990;-57
2023/02/01 05:09:41;;;;;;;;;;;;;;;16.20;42.39;100816.22;4968915;28;1189;-57
2023/02/01 05:14:51;;;;;;;;;;;;;;;17.57;39.42;100815.72;4973421;28;1865;-57
2023/02/01 05:17:17;;;;;;;;;;;;;;;16.29;42.05;100820.13;4977661;28;1915;-56
2023/02/01 05:19:42;;;;;;;;;;;;;;;15.91;43.13;100819.44;4977887;28;1259;-53
2023/02/01 05:22:08;;;;;;;;;;;;;;;17.02;40.36;100821.84;4964242;28;1140;-53
2023/02/01 05:24:33;;;;;;;;;;;;;;;15.90;42.90;100826.00;4965192;28;1217;-54
2023/02/01 05:26:58;;;;;;;;;;;;;;;15.47;43.67;100827.94;4971037;28;1098;-53
2023/02/01 05:29:24;;;;;;;;;;;;;;;15.36;43.44;100830.63;4970880;28;1105;-57
2023/02/01 05:31:49;;;;;;;;;;;;;;;16.24;42.29;100822.81;4977226;28;1025;-58
2023/02/01 05:34:15;;;;;;;;;;;;;;;15.46;43.78;100829.03;4964399;28;847;-58
2023/02/01 05:36:40;;;;;;;;;;;;;;;15.23;43.63;100829.19;4976460;28;1922;-57
2023/02/01 05:39:06;;;;;;;;;;;;;;;15.38;43.97;100833.09;4977673;28;1022;-56
2023/02/01 05:41:31;;;;;;;;;;;;;;;15.72;43.34;100836.34;4977400;28;1041;-54
2023/02/01 05:43:57;;;;;;;;;;;;;;;15.20;44.65;100837.09;4967170;28;970;-55
2023/02/01 05:46:22;;;;;;;;;;;;;;;17.23;40.26;100832.84;4966547;28;1947;-54
2023/02/01 05:48:48;;;;;;;;;;;;;;;15.77;43.29;100840.16;4965508;28;1022;-56
2023/02/01 05:51:13;;;;;;;;;;;;;;;15.38;43.69;100839.41;4971176;28;1142;-57
2023/02/01 05:53:39;;;;;;;;;;;;;;;15.06;43.97;100833.97;4958962;28;1133;-57
2023/02/01 05:56:04;;;;;;;;;;;;;;;16.00;42.91;100845.25;4971271;28;1090;-57
2023/02/01 05:58:30;;;;;;;;;;;;;;;15.50;43.83;100846.59;4969493;28;1896;-51
2023/02/01 06:00:55;;;;;;;;;;;;;;;16.82;41.25;100850.13;4959457;28;1137;-53
2023/02/01 06:03:21;;;;;;;;;;;;;;;17.30;40.09;100849.06;4970498;28;1136;-59
2023/02/01 06:05:46;;;;;;;;;;;;;;;15.92;43.05;100856.72;4979291;28;1107;-52
2023/02/01 06:08:12;;;;;;;;;;;;;;;16.71;41.51;100853.97;4975560;28;1014;-60
2023/02/01 06:10:37;;;;;;;;;;;;;;;16.30;42.03;100853.84;4970822;28;1128;-57
2023/02/01 06:13:03;;;;;;;;;;;;;;;15.58;43.58;100854.31;4973069;28;1125;-56
2023/02/01 06:15:29;;;;;;;;;;;;;;;15.60;43.85;100857.63;4981884;28;1125;-58
2023/02/01 06:17:54;;;;;;;;;;;;;;;15.99;42.76;100861.97;4972935;28;1906;-58
2023/02/01 06:20:20;;;;;;;;;;;;;;;16.15;42.40;100863.69;4981220;28;1161;-54
2023/02/01 06:22:45;;;;;;;;;;;;;;;15.84;43.02;100854.50;4972712;28;884;-55
2023/02/01 06:25:11;;;;;;;;;;;;;;;15.54;43.73;100867.75;4969143;28;1127;-52
2023/02/01 06:27:36;;;;;;;;;;;;;;;15.32;43.93;100867.88;4983495;28;1089;-57
2023/02/01 06:30:02;;;;;;;;;;;;;;;15.14;44.42;100866.34;4983604;28;1089;-59
2023/02/01 06:32:28;;;;;;;;;;;;;;;16.46;41.53;100873.94;4979605;28;1133;-58
2023/02/01 06:34:55;;;;;;;;;;;;;;;17.33;39.52;100865.81;4983098;28;900;-54
2023/02/01 06:37:21;;;;;;;;;;;;;;;16.17;41.91;100866.16;4976259;28;1902;-56
2023/02/01 06:39:46;;;;;;;;;;;;;;;15.62;43.37;100865.59;4964432;28;1217;-51
2023/02/01 06:42:12;;;;;;;;;;;;;;;15.37;44.04;100865.13;4976807;28;1034;-60
2023/02/01 06:44:37;;;;;;;;;;;;;;;16.63;41.22;100863.53;4976141;28;1212;-60
2023/02/01 06:47:03;;;;;;;;;;;;;;;17.31;39.49;100868.00;4969865;28;784;-59
2023/02/01 06:49:28;;;;;;;;;;;;;;;16.18;41.95;100868.63;4972891;28;1206;-58
2023/02/01 06:51:54;;;;;;;;;;;;;;;15.70;43.29;100873.31;4977085;28;1015;-57
2023/02/01 06:54:19;;;;;;;;;;;;;;;15.39;44.04;100873.94;4974024;28;1114;-60
2023/02/01 06:56:45;;;;;;;;;;;;;;;15.45;43.61;100874.81;4964351;28;1961;-61
2023/02/01 06:59:10;;;;;;;;;;;;;;;17.00;40.52;100879.00;4973794;28;1090;-58
2023/02/01 07:01:35;;;;;;;;;;;;;;;16.95;40.34;100880.94;4998356;28;1045;-61
2023/02/01 07:04:01;;;;;;;;;;;;;;;16.06;42.12;100885.31;4976106;28;1149;-58
2023/02/01 07:06:26;;;;;;;;;;;;;;;15.62;43.33;100887.53;4970271;28;1185;-59
2023/02/01 07:08:55;;;;;;;;;;;;;;;15.33;43.81;100885.97;4975204;28;1233;-61
2023/02/01 07:11:20;;;;;;;;;;;;;;;16.82;40.71;100883.06;4982439;28;979;-59
2023/02/01 07:13:46;;;;;;;;;;;;;;;17.32;39.35;100866.91;4970807;28;1205;-60
2023/02/01 07:16:12;;;;;;;;;;;;;;;16.21;41.72;100879.06;4979356;28;1062;-59
2023/02/01 07:18:38;;;;;;;;;;;;;;;15.72;43.08;100877.47;4955020;28;1928;-58
2023/02/01 07:21:05;;;;;;;;;;;;;;;15.48;43.63;100881.66;4973736;28;1208;-52
2023/02/01 07:23:30;;;;;;;;;;;;;;;16.27;41.83;100881.84;4957472;28;1159;-57
2023/02/01 07:25:56;;;;;;;;;;;;;;;17.41;39.20;100884.47;4978155;28;1130;-61
2023/02/01 07:28:21;;;;;;;;;;;;;;;16.57;40.98;100886.59;4970049;28;1109;-60
2023/02/01 07:30:50;;;;;;;;;;;;;;;15.96;42.49;100896.22;4971917;28;1173;-60
2023/02/01 07:33:23;;;;;;;;;;;;;;;15.60;43.26;100890.53;4960277;29;1210;-60
2023/02/01 07:35:48;;;;;;;;;;;;;;;15.44;43.68;100888.78;4965355;28;1008;-57
2023/02/01 07:38:14;;;;;;;;;;;;;;;17.01;40.30;100890.81;4959561;28;1902;-59
2023/02/01 07:40:40;;;;;;;;;;;;;;;17.28;39.28;100887.81;4960226;28;1162;-56
2023/02/01 07:43:08;;;;;;;;;;;;;;;16.21;41.74;100887.28;4962669;28;1222;-57
2023/02/01 07:45:36;;;;;;;;;;;;;;;15.82;42.64;100906.03;4966297;28;1253;-63
2023/02/01 07:48:02;;;;;;;;;;;;;;;15.47;43.51;100902.75;4973596;28;988;-57
2023/02/01 07:50:27;;;;;;;;;;;;;;;16.97;40.17;100904.28;4959973;28;1225;-54
2023/02/01 07:52:53;;;;;;;;;;;;;;;17.58;38.80;100899.88;4959707;28;1237;-55
2023/02/01 07:55:19;;;;;;;;;;;;;;;16.37;41.30;100904.66;4959410;28;1209;-55
2023/02/01 07:57:44;;;;;;;;;;;;;;;15.92;42.28;100897.84;4976129;28;1910;-60
2023/02/01 08:02:54;;;;;;;;;;;;;;;16.62;41.13;100905.84;4965241;28;1173;-58
2023/02/01 08:05:20;;;;;;;;;;;;;;;17.67;38.60;100902.88;4969126;28;1047;-62
2023/02/01 08:07:48;;;;;;;;;;;;;;;16.96;40.08;100904.53;4961321;28;1241;-58
2023/02/01 08:10:13;;;;;;;;;;;;;;;16.19;41.42;100899.66;4970258;28;1007;-60
2023/02/01 08:12:39;;;;;;;;;;;;;;;15.87;42.45;100895.09;4962776;28;1073;-55
2023/02/01 08:15:05;;;;;;;;;;;;;;;15.60;42.85;100901.50;4958976;29;1186;-60
2023/02/01 08:17:31;;;;;;;;;;;;;;;15.36;43.55;100896.38;4965094;28;2056;-63
2023/02/01 08:19:56;;;;;;;;;;;;;;;16.71;40.41;100903.38;4963846;28;1213;-60
2023/02/01 08:22:22;;;;;;;;;;;;;;;17.70;38.40;100903.16;4965377;28;908;-61
2023/02/01 08:24:48;;;;;;;;;;;;;;;16.51;40.94;100912.38;4973735;28;1150;-57
2023/02/01 08:27:13;;;;;;;;;;;;;;;15.91;42.18;100910.75;4968257;28;1050;-60
2023/02/01 08:29:39;;;;;;;;;;;;;;;15.65;42.53;100903.44;4977103;28;1205;-62
2023/02/01 08:32:04;;;;;;;;;;;;;;;15.41;43.31;100903.81;4972992;28;1101;-60
2023/02/01 08:34:31;;;;;;;;;;;;;;;16.64;40.79;100908.31;4956247;28;1007;-55
2023/02/01 08:36:59;;;;;;;;;;;;;;;17.63;38.55;100905.38;4966491;28;1999;-63
2023/02/01 08:39:25;;;;;;;;;;;;;;;16.70;40.25;100904.47;4958090;28;1190;-63
2023/02/01 08:44:34;;;;;;;;;;;;;;;15.73;42.58;100917.47;4958398;28;1293;-60
2023/02/01 08:47:00;;;;;;;;;;;;;;;15.49;43.12;100908.00;4970676;28;1035;-54
2023/02/01 08:49:26;;;;;;;;;;;;;;;16.36;41.12;100916.72;4971768;28;1182;-58
2023/02/01 08:51:51;;;;;;;;;;;;;;;17.51;38.71;100921.31;4967171;28;1117;-55
2023/02/01 08:54:16;;;;;;;;;;;;;;;16.70;40.24;100913.53;4965991;28;1138;-56
2023/02/01 08:56:42;;;;;;;;;;;;;;;16.03;41.64;100915.19;4968311;28;1177;-57
2023/02/01 08:59:07;;;;;;;;;;;;;;;15.75;42.31;100914.47;4967652;28;1972;-56
2023/02/01 09:01:33;;;;;;;;;;;;;;;15.51;43.00;100920.31;4966495;28;1162;-60
2023/02/01 09:03:58;;;;;;;;;;;;;;;16.92;40.09;100915.25;4958200;29;1309;-62
2023/02/01 09:06:24;;;;;;;;;;;;;;;17.39;38.70;100916.94;4955531;29;1155;-57
2023/02/01 09:08:49;;;;;;;;;;;;;;;16.27;41.17;100921.09;4958581;29;1201;-54
2023/02/01 09:11:21;;;;;;;;;;;;;;;15.89;42.13;100914.84;4970607;28;1165;-53
2023/02/01 09:13:46;;;;;;;;;;;;;;;15.59;42.92;100913.53;4954476;28;1122;-58
2023/02/01 09:16:12;;;;;;;;;;;;;;;16.62;40.89;100911.34;4958401;28;1185;-53
2023/02/01 09:18:37;;;;;;;;;;;;;;;17.65;38.44;100905.91;4957926;29;1907;-56
2023/02/01 09:21:09;;;;;;;;;;;;;;;16.68;40.10;100904.75;4968019;28;1118;-59
2023/02/01 09:23:34;;;;;;;;;;;;;;;16.06;41.70;100899.03;4956887;28;1124;-60
2023/02/01 09:26:00;;;;;;;;;;;;;;;15.77;42.62;100889.50;4970606;28;1050;-58
2023/02/01 09:28:25;;;;;;;;;;;;;;;15.65;42.72;100887.81;4957616;28;1098;-59
2023/02/01 09:30:54;;;;;;;;;;;;;;;17.19;39.62;100887.50;4965372;28;1099;-61
2023/02/01 09:33:21;;;;;;;;;;;;;;;16.51;40.76;100887.66;4964296;28;1129;-57
2023/02/01 09:35:46;;;;;;;;;;;;;;;15.91;41.90;100880.59;4961540;28;1268;-59
2023/02/01 09:38:12;;;;;;;;;;;;;;;15.67;42.80;100877.41;4957229;28;1972;-57
2023/02/01 09:40:39;;;;;;;;;;;;;;;15.46;42.94;100873.72;4957698;29;1166;-58
2023/02/01 09:43:13;;;;;;;;;;;;;;;17.02;39.89;100865.81;4959689;28;1292;-55
2023/02/01 09:45:38;;;;;;;;;;;;;;;17.75;38.05;100867.41;4957722;29;1260;-58
2023/02/01 09:48:12;;;;;;;;;;;;;;;16.49;40.90;100856.94;4957684;28;1206;-57
2023/02/01 09:50:38;;;;;;;;;;;;;;;16.01;42.00;100855.13;4940449;29;1190;-57
2023/02/01 09:53:09;;;;;;;;;;;;;;;15.74;42.64;100847.84;4957417;28;1257;-58
2023/02/01 09:55:36;;;;;;;;;;;;;;;15.54;43.06;100859.53;4957738;29;1236;-58
2023/02/01 09:58:03;;;;;;;;;;;;;;;17.06;39.82;100858.66;4940431;29;1911;-59
2023/02/01 10:00:29;;;;;;;;;;;;;;;17.40;38.79;100849.88;4959691;28;1236;-58
2023/02/01 10:02:55;;;;;;;;;;;;;;;16.33;41.23;100854.16;4957523;29;1217;-59
2023/02/01 10:05:33;;;;;;;;;;;;;;;15.88;42.28;100844.66;4940222;29;1158;-58
2023/02/01 10:08:01;;;;;;;;;;;;;;;15.59;42.70;100842.28;4940668;29;1143;-58
2023/02/01 10:10:29;;;;;;;;;;;;;;;15.40;43.39;100831.75;4950355;28;1166;-54
2023/02/01 10:12:55;;;;;;;;;;;;;;;16.88;40.18;100829.81;4985166;28;992;-60
2023/02/01 10:15:30;;;;;;;;;;;;;;;17.40;39.08;100822.38;4960732;28;870;-60
2023/02/01 10:17:55;;;;;;;;;;;;;;;16.23;41.46;100816.53;4970931;28;1902;-55
2023/02/01 10:20:21;;;;;;;;;;;;;;;15.86;42.27;100816.66;4962404;28;1135;-58
2023/02/01 10:22:47;;;;;;;;;;;;;;;15.61;42.57;100811.84;4957241;29;1265;-60
2023/02/01 10:25:24;;;;;;;;;;;;;;;16.49;41.02;100810.28;4939487;29;1028;-58
2023/02/01 10:27:50;;;;;;;;;;;;;;;17.66;38.55;100797.56;4945836;29;1023;-56
2023/02/01 10:30:18;;;;;;;;;;;;;;;16.63;40.42;100799.59;4970831;28;1112;-53
2023/02/01 10:32:43;;;;;;;;;;;;;;;16.08;41.93;100808.25;4976750;28;1093;-59
2023/02/01 10:35:13;;;;;;;;;;;;;;;15.79;42.33;100805.09;4962766;28;1113;-54
2023/02/01 10:37:40;;;;;;;;;;;;;;;15.54;43.04;100801.97;4948764;28;1956;-55
2023/02/01 10:40:15;;;;;;;;;;;;;;;16.16;41.74;100802.25;4991788;28;1085;-56
2023/02/01 10:42:40;;;;;;;;;;;;;;;17.51;38.71;100806.66;4956652;28;1174;-55
2023/02/01 10:45:06;;;;;;;;;;;;;;;16.72;40.26;100796.03;4972985;28;1050;-53
2023/02/01 10:47:31;;;;;;;;;;;;;;;16.07;41.75;100790.13;4967066;28;1153;-55
2023/02/01 10:50:15;;;;;;;;;;;;;;;15.80;42.56;100785.66;4977698;28;1069;-55
2023/02/01 10:52:43;;;;;;;;;;;;;;;15.50;42.99;100789.03;4962443;28;980;-56
2023/02/01 10:55:29;;;;;;;;;;;;;;;16.11;41.83;100784.94;4985952;28;1105;-55
2023/02/01 10:57:58;;;;;;;;;;;;;;;17.48;39.00;100787.19;4954521;28;1907;-60
2023/02/01 11:00:24;;;;;;;;;;;;;;;16.45;41.03;100784.47;4994039;28;1104;-56
2023/02/01 11:02:50;;;;;;;;;;;;;;;15.90;42.29;100782.94;4980652;28;1050;-57
2023/02/01 11:05:16;;;;;;;;;;;;;;;15.66;42.75;100781.75;4979366;28;1120;-57
2023/02/01 11:07:46;;;;;;;;;;;;;;;16.01;42.13;100781.06;4962386;28;1095;-60
2023/02/01 11:10:31;;;;;;;;;;;;;;;17.42;38.93;100770.69;4942703;29;1225;-58
2023/02/01 11:12:57;;;;;;;;;;;;;;;16.36;41.24;100770.47;4957739;28;1139;-56
2023/02/01 11:15:24;;;;;;;;;;;;;;;15.87;42.28;100763.47;4958998;28;1065;-53
2023/02/01 11:17:59;;;;;;;;;;;;;;;15.68;42.66;100768.56;4960566;28;1888;-56
2023/02/01 11:20:40;;;;;;;;;;;;;;;15.95;42.11;100771.19;4974767;28;1061;-57
2023/02/01 11:23:10;;;;;;;;;;;;;;;17.43;39.00;100758.59;4959389;28;1000;-56
2023/02/01 11:25:36;;;;;;;;;;;;;;;16.58;40.56;100754.56;4950025;28;916;-56
2023/02/01 11:28:01;;;;;;;;;;;;;;;16.02;41.70;100757.19;4968101;28;1035;-56
2023/02/01 11:30:27;;;;;;;;;;;;;;;15.70;42.61;100758.19;4985853;28;1050;-53
2023/02/01 11:32:52;;;;;;;;;;;;;;;15.49;42.92;100749.06;4963915;28;1114;-56
2023/02/01 11:35:19;;;;;;;;;;;;;;;16.98;39.75;100752.09;4961924;28;780;-56
2023/02/01 11:37:44;;;;;;;;;;;;;;;17.03;39.82;100749.34;4989166;28;1976;-56
2023/02/01 11:40:10;;;;;;;;;;;;;;;16.06;41.82;100745.44;4971640;28;1097;-57
2023/02/01 11:42:35;;;;;;;;;;;;;;;15.72;42.36;100739.53;4974606;28;1166;-55
2023/02/01 11:45:15;;;;;;;;;;;;;;;15.50;43.25;100737.81;4983623;28;1081;-54
2023/02/01 11:47:41;;;;;;;;;;;;;;;15.27;43.28;100738.25;4976856;28;1129;-56
2023/02/01 11:50:14;;;;;;;;;;;;;;;16.84;39.99;100732.56;4979256;28;1054;-56
2023/02/01 11:52:44;;;;;;;;;;;;;;;17.59;38.40;100731.06;4978820;28;985;-52
2023/02/01 11:55:15;;;;;;;;;;;;;;;16.42;40.84;100731.78;4970152;28;1050;-53
2023/02/01 11:57:41;;;;;;;;;;;;;;;15.94;41.81;100733.06;4966270;28;1977;-48
2023/02/01 12:00:08;;;;;;;;;;;;;;;15.65;42.54;100738.97;4978866;28;1116;-52
2023/02/01 12:02:42;;;;;;;;;;;;;;;15.39;43.14;100734.19;4966442;28;1057;-52
2023/02/01 12:05:20;;;;;;;;;;;;;;;16.55;40.82;100733.16;4942102;29;1245;-57
2023/02/01 12:07:58;;;;;;;;;;;;;;;17.57;38.50;100728.59;4940235;29;1159;-55
2023/02/01 12:10:39;;;;;;;;;;;;;;;16.33;41.14;100727.91;4956944;29;1241;-52
2023/02/01 12:13:23;;;;;;;;;;;;;;;15.87;42.23;100736.06;4957951;28;1063;-56
2023/02/01 12:16:01;;;;;;;;;;;;;;;15.53;42.86;100737.28;4942022;29;1240;-57
2023/02/01 12:18:26;;;;;;;;;;;;;;;15.43;43.38;100741.88;4951839;28;1982;-57
2023/02/01 12:21:06;;;;;;;;;;;;;;;16.99;39.77;100740.00;4967435;28;1146;-55
2023/02/01 12:23:41;;;;;;;;;;;;;;;17.15;39.45;100724.31;4966179;28;1123;-45
2023/02/01 12:26:27;;;;;;;;;;;;;;;16.12;41.54;100723.47;4957921;28;1004;-52
2023/02/01 12:28:55;;;;;;;;;;;;;;;15.73;42.42;100720.06;4934628;29;1290;-53
2023/02/01 12:31:30;;;;;;;;;;;;;;;15.51;43.20;100722.19;4958960;29;1245;-58
2023/02/01 12:33:59;;;;;;;;;;;;;;;16.52;41.04;100719.13;4957329;29;1205;-54
2023/02/01 12:36:33;;;;;;;;;;;;;;;17.49;38.59;100717.31;4959240;28;1206;-57
2023/02/01 12:39:11;;;;;;;;;;;;;;;16.30;41.28;100722.13;4959226;29;1981;-51
2023/02/01 12:41:47;;;;;;;;;;;;;;;15.78;42.38;100727.50;4940478;29;1214;-51
2023/02/01 12:44:33;;;;;;;;;;;;;;;15.48;43.01;100717.25;4941378;28;1193;-58
2023/02/01 12:46:58;;;;;;;;;;;;;;;16.14;41.71;100721.31;4956525;29;1250;-47
2023/02/01 12:49:25;;;;;;;;;;;;;;;17.29;39.10;100710.81;4958368;28;1261;-52
2023/02/01 12:51:52;;;;;;;;;;;;;;;16.17;41.44;100707.03;4958763;29;1224;-54
2023/02/01 12:54:32;;;;;;;;;;;;;;;15.74;42.62;100712.69;4959805;28;1307;-56
2023/02/01 12:57:07;;;;;;;;;;;;;;;15.49;42.77;100707.94;4958443;29;1981;-58
2023/02/01 12:59:38;;;;;;;;;;;;;;;16.88;40.21;100705.38;4942014;29;1292;-51
2023/02/01 13:02:12;;;;;;;;;;;;;;;17.47;38.57;100708.56;4958277;28;1343;-55
2023/02/01 13:04:40;;;;;;;;;;;;;;;16.21;41.32;100699.91;4941361;29;1221;-53
2023/02/01 13:07:06;;;;;;;;;;;;;;;15.74;42.39;100709.94;4957482;28;1346;-54
2023/02/01 13:09:37;;;;;;;;;;;;;;;15.51;42.82;100705.75;4955191;28;1115;-56
2023/02/01 13:12:26;;;;;;;;;;;;;;;15.79;42.55;100699.00;4957526;28;1202;-59
2023/02/01 13:14:51;;;;;;;;;;;;;;;17.37;39.03;100696.47;4949770;29;1248;-57
2023/02/01 13:17:24;;;;;;;;;;;;;;;16.34;41.22;100691.16;4957883;29;1958;-57
2023/02/01 13:19:50;;;;;;;;;;;;;;;15.79;42.37;100701.75;4938795;29;1139;-59
2023/02/01 13:22:18;;;;;;;;;;;;;;;15.48;43.02;100693.41;4958391;29;1214;-52